Time;durP1;ratioP1;P1;durP2;ratioP2;P2;SDS_P1;SDS_P2;PMS_P1;PMS_P2;Temp;Humidity;BMP_temperature;BMP_pressure;BME280_temperature;BME280_humidity;BME280_pressure;Samples;Min_cycle;Max_cycle;Signal;HPM_P1;HPM_P2
2022/07/07 00:00:08;;;;;;;11.07;6.40;;;16.40;99.90;;;;;;6363190;22;20010;-80
2022/07/07 00:02:34;;;;;;;11.65;7.15;;;16.40;99.90;;;;;;6335792;22;20022;-80
2022/07/07 00:05:03;;;;;;;10.90;6.90;;;16.50;99.90;;;;;;6361251;22;20029;-80
2022/07/07 00:07:29;;;;;;;9.20;6.75;;;16.50;99.90;;;;;;6335137;22;20022;-79
2022/07/07 00:09:55;;;;;;;11.13;7.55;;;16.50;99.90;;;;;;6329939;22;20018;-81
2022/07/07 00:12:24;;;;;;;10.43;6.60;;;16.50;99.90;;;;;;6277798;22;20064;-82
2022/07/07 00:14:56;;;;;;;10.43;6.60;;;16.50;99.90;;;;;;6331552;22;20098;-80
2022/07/07 00:17:22;;;;;;;8.60;6.40;;;16.50;99.90;;;;;;6304380;22;20027;-82
2022/07/07 00:19:48;;;;;;;9.00;5.30;;;16.50;99.90;;;;;;6328410;22;20011;-82
2022/07/07 00:22:14;;;;;;;10.07;5.53;;;16.50;99.90;;;;;;6304550;22;20038;-80
2022/07/07 00:24:41;;;;;;;9.60;5.88;;;16.50;99.90;;;;;;6281807;22;20019;-81
2022/07/07 00:27:07;;;;;;;10.43;5.68;;;16.50;99.90;;;;;;6309585;22;20053;-80
2022/07/07 00:29:33;;;;;;;8.65;5.65;;;16.50;99.90;;;;;;6330499;22;20015;-80
2022/07/07 00:31:59;;;;;;;6.95;5.50;;;16.50;99.90;;;;;;6303716;22;20029;-82
2022/07/07 00:34:25;;;;;;;9.23;5.53;;;16.50;99.90;;;;;;6276264;22;20102;-80
2022/07/07 00:36:51;;;;;;;9.02;5.93;;;16.50;99.90;;;;;;6278185;22;20050;-81
2022/07/07 00:39:18;;;;;;;11.05;5.65;;;16.50;99.90;;;;;;6278173;22;20015;-82
2022/07/07 00:41:44;;;;;;;9.25;5.35;;;16.50;99.90;;;;;;6278976;22;20106;-81
2022/07/07 00:44:12;;;;;;;9.25;5.18;;;16.50;99.90;;;;;;6303879;22;20011;-81
2022/07/07 00:46:44;;;;;;;10.82;5.10;;;16.50;99.90;;;;;;6303421;22;20019;-83
2022/07/07 00:49:11;;;;;;;11.25;5.15;;;16.50;99.90;;;;;;6328314;22;20102;-83
2022/07/07 00:51:38;;;;;;;7.03;4.28;;;16.40;99.90;;;;;;6301963;22;20088;-82
2022/07/07 00:54:04;;;;;;;;;;;16.40;99.90;;;;;;6305106;22;20023;-81
2022/07/07 00:56:30;;;;;;;7.22;3.65;;;16.30;99.90;;;;;;6329468;22;19914;-83
2022/07/07 00:59:02;;;;;;;8.25;3.15;;;16.30;99.90;;;;;;6329500;22;20061;-82
2022/07/07 01:01:29;;;;;;;5.05;2.75;;;16.30;99.90;;;;;;6331372;22;20022;-85
2022/07/07 01:03:55;;;;;;;6.15;2.95;;;16.20;99.90;;;;;;6330324;22;20537;-81
2022/07/07 01:06:22;;;;;;;6.20;3.17;;;16.20;99.90;;;;;;6329783;22;20026;-82
2022/07/07 01:08:48;;;;;;;7.05;2.53;;;16.10;99.90;;;;;;6329640;22;20456;-84
2022/07/07 01:11:14;;;;;;;4.22;2.70;;;16.10;99.90;;;;;;6277442;22;20023;-86
2022/07/07 01:13:40;;;;;;;7.22;2.72;;;16.10;99.90;;;;;;6329728;22;20015;-82
2022/07/07 01:16:06;;;;;;;6.05;2.63;;;16.00;99.90;;;;;;6328593;22;20018;-83
2022/07/07 01:18:32;;;;;;;8.43;3.00;;;16.10;99.90;;;;;;6276208;22;20088;-79
2022/07/07 01:21:02;;;;;;;5.60;2.97;;;16.00;99.90;;;;;;6330955;22;20022;-84
2022/07/07 01:23:28;;;;;;;6.18;2.88;;;16.00;99.90;;;;;;6331712;22;20053;-80
2022/07/07 01:25:54;;;;;;;6.90;2.83;;;16.00;99.90;;;;;;6331047;22;20029;-79
2022/07/07 01:28:20;;;;;;;6.03;2.65;;;16.00;99.90;;;;;;6328889;22;20094;-79
2022/07/07 01:30:47;;;;;;;6.38;2.97;;;16.00;99.90;;;;;;6302852;22;20104;-79
2022/07/07 01:33:15;;;;;;;6.32;3.05;;;16.00;99.90;;;;;;6328657;22;20145;-80
2022/07/07 01:35:41;;;;;;;9.05;3.45;;;16.00;99.90;;;;;;6328369;22;20025;-80
2022/07/07 01:38:07;;;;;;;7.85;3.85;;;15.90;99.90;;;;;;6303506;22;20018;-78
2022/07/07 01:40:33;;;;;;;6.25;3.33;;;15.90;99.90;;;;;;6303570;22;20112;-80
2022/07/07 01:42:59;;;;;;;6.47;2.70;;;15.90;99.90;;;;;;6328401;22;20030;-79
2022/07/07 01:45:25;;;;;;;10.32;3.47;;;16.00;99.90;;;;;;6328115;22;20019;-81
2022/07/07 01:47:51;;;;;;;7.00;3.20;;;15.90;99.90;;;;;;6328825;22;20584;-79
2022/07/07 01:50:17;;;;;;;9.43;3.45;;;15.90;99.90;;;;;;6301350;22;20026;-80
2022/07/07 01:52:44;;;;;;;9.70;3.58;;;15.90;99.90;;;;;;6302924;22;20018;-78
2022/07/07 01:55:10;;;;;;;8.15;3.92;;;15.90;99.90;;;;;;6328833;22;20067;-79
2022/07/07 01:57:36;;;;;;;11.30;4.10;;;15.90;99.90;;;;;;6302507;22;20438;-80
2022/07/07 02:00:03;;;;;;;9.13;3.47;;;15.90;99.90;;;;;;6302213;22;20076;-79
2022/07/07 02:02:29;;;;;;;13.75;4.07;;;16.00;99.90;;;;;;6328717;22;20022;-81
2022/07/07 02:04:55;;;;;;;9.30;3.72;;;16.00;99.90;;;;;;6327465;22;20097;-80
2022/07/07 02:07:21;;;;;;;11.68;4.03;;;15.90;99.90;;;;;;6286729;22;20047;-81
2022/07/07 02:09:47;;;;;;;8.13;3.58;;;16.00;99.90;;;;;;6225511;22;20094;-81
2022/07/07 02:12:13;;;;;;;10.43;3.63;;;16.00;99.90;;;;;;6251543;22;20026;-81
2022/07/07 02:14:39;;;;;;;6.85;3.45;;;16.00;99.90;;;;;;6226203;22;20014;-81
2022/07/07 02:17:05;;;;;;;8.40;3.50;;;16.00;99.90;;;;;;6303112;22;20056;-79
2022/07/07 02:19:31;;;;;;;12.77;3.70;;;16.00;99.90;;;;;;6273838;22;20029;-81
2022/07/07 02:21:57;;;;;;;8.45;2.95;;;16.00;99.90;;;;;;6303005;22;20056;-82
2022/07/07 02:24:23;;;;;;;8.25;1.88;;;15.90;99.90;;;;;;6278334;22;20083;-83
2022/07/07 02:26:49;;;;;;;11.07;2.03;;;15.90;99.90;;;;;;6278040;22;20054;-80
2022/07/07 02:29:15;;;;;;;7.13;2.40;;;15.90;99.90;;;;;;6276997;22;20018;-81
2022/07/07 02:31:41;;;;;;;12.55;2.40;;;15.90;99.90;;;;;;6252077;22;20050;-80
2022/07/07 02:34:07;;;;;;;11.55;2.58;;;15.80;99.90;;;;;;6276393;22;20015;-79
2022/07/07 02:36:33;;;;;;;6.13;2.42;;;15.90;99.90;;;;;;6302737;22;20064;-79
2022/07/07 02:38:59;;;;;;;9.10;2.55;;;15.90;99.90;;;;;;6277696;22;20018;-80
2022/07/07 02:41:25;;;;;;;6.35;2.22;;;15.80;99.90;;;;;;6303325;22;20108;-80
2022/07/07 02:43:52;;;;;;;8.77;2.38;;;15.90;99.90;;;;;;6302917;22;20431;-81
2022/07/07 02:46:17;;;;;;;10.55;2.50;;;15.80;99.90;;;;;;6254682;22;20015;-79
2022/07/07 02:48:44;;;;;;;10.95;2.58;;;15.80;99.90;;;;;;6310156;22;20523;-81
2022/07/07 02:51:10;;;;;;;8.15;2.83;;;15.80;99.90;;;;;;6283268;22;20369;-82
2022/07/07 02:53:36;;;;;;;9.93;2.83;;;15.90;99.90;;;;;;6305140;22;20435;-79
2022/07/07 02:56:03;;;;;;;12.35;2.90;;;15.90;99.90;;;;;;6305513;22;20050;-79
2022/07/07 02:58:29;;;;;;;10.10;2.65;;;15.90;99.90;;;;;;6304587;22;20350;-79
2022/07/07 03:00:55;;;;;;;7.32;2.72;;;15.90;99.90;;;;;;6253300;22;20010;-81
2022/07/07 03:03:21;;;;;;;10.68;2.65;;;15.90;99.90;;;;;;6253108;22;20053;-80
2022/07/07 03:05:48;;;;;;;12.02;2.67;;;15.90;99.90;;;;;;6279525;22;20011;-79
2022/07/07 03:08:14;;;;;;;7.95;2.65;;;15.90;99.90;;;;;;6283735;22;20050;-80
2022/07/07 03:10:41;;;;;;;12.57;3.00;;;15.90;99.90;;;;;;6258562;22;20027;-80
2022/07/07 03:13:08;;;;;;;8.15;2.67;;;15.80;99.90;;;;;;6279566;22;20090;-81
2022/07/07 03:15:34;;;;;;;13.65;3.15;;;15.90;99.90;;;;;;6304356;22;20023;-82
2022/07/07 03:18:02;;;;;;;10.93;2.63;;;15.90;99.90;;;;;;6303757;22;20018;-82
2022/07/07 03:20:28;;;;;;;7.85;2.47;;;15.90;99.90;;;;;;6303712;22;20019;-79
2022/07/07 03:22:54;;;;;;;8.30;2.30;;;15.80;99.90;;;;;;6279504;22;20058;-81
2022/07/07 03:25:20;;;;;;;7.40;1.98;;;15.80;99.90;;;;;;6253406;22;20057;-79
2022/07/07 03:27:46;;;;;;;4.78;1.33;;;15.80;99.90;;;;;;6278971;22;20407;-80
2022/07/07 03:30:12;;;;;;;8.05;1.23;;;15.70;99.90;;;;;;6252551;22;20344;-83
2022/07/07 03:32:38;;;;;;;6.40;1.20;;;15.70;99.90;;;;;;6279169;22;20097;-83
2022/07/07 03:35:04;;;;;;;5.65;1.58;;;15.50;99.90;;;;;;6251905;22;20689;-82
2022/07/07 03:37:37;;;;;;;8.02;1.48;;;15.50;99.90;;;;;;6291940;22;20025;-82
2022/07/07 03:40:05;;;;;;;4.20;0.98;;;15.40;99.90;;;;;;6307923;22;20471;-85
2022/07/07 03:42:31;;;;;;;9.60;1.80;;;15.40;99.90;;;;;;6305912;22;20028;-85
2022/07/07 03:44:57;;;;;;;6.93;1.20;;;15.30;99.90;;;;;;6305172;22;20015;-84
2022/07/07 03:47:23;;;;;;;6.63;1.48;;;15.30;99.90;;;;;;6280036;22;20019;-86
2022/07/07 03:49:49;;;;;;;13.73;1.55;;;15.30;99.90;;;;;;6303902;22;20455;-85
2022/07/07 03:52:18;;;;;;;7.35;1.77;;;15.30;99.90;;;;;;6253943;22;20027;-83
2022/07/07 03:54:44;;;;;;;6.07;1.00;;;15.40;99.90;;;;;;6279994;22;20374;-84
2022/07/07 03:57:10;;;;;;;5.45;1.10;;;15.40;99.90;;;;;;6279832;22;20015;-84
2022/07/07 03:59:36;;;;;;;5.30;0.60;;;15.40;99.90;;;;;;6279122;22;20011;-82
2022/07/07 04:02:02;;;;;;;6.35;0.95;;;15.40;99.90;;;;;;6229156;22;20490;-84
2022/07/07 04:04:28;;;;;;;7.53;1.08;;;15.40;99.90;;;;;;6278048;22;20098;-84
2022/07/07 04:06:56;;;;;;;6.50;0.80;;;15.30;99.90;;;;;;6228710;22;20029;-88
2022/07/07 04:09:21;;;;;;;3.70;0.85;;;15.30;99.90;;;;;;6280470;22;20015;-81
2022/07/07 04:11:50;;;;;;;8.60;1.17;;;15.30;99.90;;;;;;6305255;22;20335;-85
2022/07/07 04:14:17;;;;;;;10.15;1.90;;;15.30;99.90;;;;;;6279745;22;20015;-82
2022/07/07 04:16:45;;;;;;;6.30;1.33;;;15.20;99.90;;;;;;6279937;22;20523;-87
2022/07/07 04:19:11;;;;;;;11.73;1.25;;;15.20;99.90;;;;;;6228503;22;20025;-82
2022/07/07 04:21:37;;;;;;;5.57;1.48;;;15.10;99.90;;;;;;6279379;22;20046;-85
2022/07/07 04:24:04;;;;;;;9.27;1.48;;;15.10;99.90;;;;;;6255157;22;20025;-87
2022/07/07 04:26:33;;;;;;;8.43;1.63;;;15.10;99.90;;;;;;6254709;22;20436;-85
2022/07/07 04:28:59;;;;;;;12.45;2.60;;;15.10;99.90;;;;;;6280686;22;20019;-88
2022/07/07 04:31:27;;;;;;;11.25;2.08;;;15.10;99.90;;;;;;6255126;22;20042;-87
2022/07/07 04:33:53;;;;;;;11.02;2.40;;;15.10;99.90;;;;;;6228578;22;20018;-83
2022/07/07 04:36:19;;;;;;;13.52;1.75;;;15.10;99.90;;;;;;6304434;22;20021;-82
2022/07/07 04:38:47;;;;;;;7.53;1.70;;;15.00;99.90;;;;;;6254555;22;20087;-86
2022/07/07 04:41:14;;;;;;;8.27;1.77;;;15.00;99.90;;;;;;6305056;22;20015;-88
2022/07/07 04:43:40;;;;;;;8.43;1.50;;;14.90;99.90;;;;;;6280475;22;20098;-88
2022/07/07 04:46:06;;;;;;;9.82;1.88;;;14.90;99.90;;;;;;6254203;22;20050;-85
2022/07/07 04:48:32;;;;;;;7.85;1.60;;;14.90;99.90;;;;;;6253126;22;20015;-84
2022/07/07 04:50:58;;;;;;;10.75;1.58;;;14.90;99.90;;;;;;6308267;22;20072;-86
2022/07/07 04:53:24;;;;;;;8.35;1.73;;;14.90;99.90;;;;;;6260299;22;20500;-86
2022/07/07 04:55:50;;;;;;;8.57;1.58;;;14.90;99.90;;;;;;6314240;22;20619;-86
2022/07/07 04:58:19;;;;;;;10.25;1.42;;;15.00;99.90;;;;;;6288080;22;20030;-83
2022/07/07 05:01:04;;;;;;;7.05;1.58;;;15.00;99.90;;;;;;6261508;22;20075;-86
2022/07/07 05:03:30;;;;;;;7.55;1.48;;;14.70;99.90;;;;;;6308733;22;20046;-79
2022/07/07 05:05:56;;;;;;;7.18;1.80;;;15.00;99.90;;;;;;6259712;22;20022;-83
2022/07/07 05:08:22;;;;;;;10.82;2.00;;;15.00;99.90;;;;;;6260922;22;20022;-81
2022/07/07 05:10:48;;;;;;;7.47;2.15;;;14.90;99.90;;;;;;6283340;22;20015;-85
2022/07/07 05:13:14;;;;;;;8.48;1.90;;;14.90;99.90;;;;;;6265028;22;20037;-83
2022/07/07 05:15:40;;;;;;;9.55;2.30;;;14.90;99.90;;;;;;6290211;22;20070;-79
2022/07/07 05:18:09;;;;;;;13.02;1.95;;;15.00;99.90;;;;;;6313303;22;20061;-86
2022/07/07 05:20:35;;;;;;;8.02;1.80;;;15.00;99.90;;;;;;6227930;22;20018;-83
2022/07/07 05:23:03;;;;;;;10.23;2.30;;;15.00;99.90;;;;;;6278516;22;20443;-82
2022/07/07 05:25:29;;;;;;;6.38;1.90;;;15.10;99.90;;;;;;6257052;22;20048;-91
2022/07/07 05:27:55;;;;;;;10.43;2.20;;;15.10;99.90;;;;;;6257942;22;20079;-85
2022/07/07 05:30:23;;;;;;;7.20;1.90;;;15.10;99.90;;;;;;6257529;22;20065;-86
2022/07/07 05:32:48;;;;;;;;;;;15.10;99.90;;;;;;6307169;22;20015;-83
2022/07/07 05:35:16;;;;;;;9.38;2.10;;;15.10;99.90;;;;;;6278911;22;19972;-85
2022/07/07 05:37:42;;;;;;;10.68;2.40;;;15.10;99.90;;;;;;6278940;22;20022;-83
2022/07/07 05:40:09;;;;;;;14.65;2.55;;;15.10;99.90;;;;;;6278296;22;20071;-86
2022/07/07 05:42:35;;;;;;;13.82;3.03;;;15.10;99.90;;;;;;6277797;22;20022;-83
2022/07/07 05:45:01;;;;;;;10.05;2.50;;;15.10;99.90;;;;;;6251987;22;20019;-83
2022/07/07 05:47:27;;;;;;;12.15;2.53;;;15.10;99.90;;;;;;6304095;22;20064;-84
2022/07/07 05:49:54;;;;;;;8.20;1.83;;;15.10;99.90;;;;;;6303678;22;20019;-84
2022/07/07 05:52:23;;;;;;;13.63;2.47;;;15.00;99.90;;;;;;6306575;22;20036;-80
2022/07/07 05:54:52;;;;;;;9.77;2.28;;;14.90;99.90;;;;;;6307599;22;20045;-86
2022/07/07 05:57:18;;;;;;;12.57;2.10;;;15.20;99.90;;;;;;6253180;22;20015;-83
2022/07/07 05:59:43;;;;;;;9.73;1.98;;;15.20;99.90;;;;;;6278269;22;20018;-85
2022/07/07 06:02:09;;;;;;;11.77;1.63;;;15.20;99.90;;;;;;6252295;22;20018;-85
2022/07/07 06:04:35;;;;;;;8.45;1.55;;;15.20;99.90;;;;;;6275489;22;20099;-81
2022/07/07 06:07:02;;;;;;;8.27;2.33;;;15.20;99.90;;;;;;6277201;22;20042;-84
2022/07/07 06:09:29;;;;;;;7.45;2.10;;;15.20;99.90;;;;;;6251794;22;20052;-85
2022/07/07 06:11:56;;;;;;;8.68;1.80;;;15.20;99.90;;;;;;6277787;22;20022;-81
2022/07/07 06:14:22;;;;;;;11.40;2.10;;;15.30;99.90;;;;;;6251865;22;20015;-83
2022/07/07 06:16:48;;;;;;;9.70;1.67;;;15.20;99.90;;;;;;6303693;22;20068;-83
2022/07/07 06:19:15;;;;;;;6.93;1.60;;;15.30;99.90;;;;;;6275845;22;20030;-83
2022/07/07 06:21:41;;;;;;;11.15;1.65;;;15.30;99.90;;;;;;6253193;22;20022;-82
2022/07/07 06:24:09;;;;;;;9.35;1.75;;;15.30;99.90;;;;;;6278898;22;20079;-81
2022/07/07 06:26:35;;;;;;;8.82;2.20;;;15.30;99.90;;;;;;6279307;22;20491;-82
2022/07/07 06:29:01;;;;;;;11.77;1.83;;;15.30;99.90;;;;;;6279101;22;20015;-84
2022/07/07 06:31:27;;;;;;;6.97;1.70;;;15.40;99.90;;;;;;6279963;22;20467;-84
2022/07/07 06:33:53;;;;;;;7.00;1.50;;;15.40;99.90;;;;;;6252693;22;20019;-80
2022/07/07 06:36:19;;;;;;;9.82;1.65;;;15.60;99.90;;;;;;6279558;22;20030;-82
2022/07/07 06:38:45;;;;;;;7.10;1.50;;;15.60;99.90;;;;;;6305899;22;20015;-85
2022/07/07 06:41:11;;;;;;;8.18;1.70;;;15.70;99.90;;;;;;6254959;22;20021;-84
2022/07/07 06:43:37;;;;;;;5.55;1.13;;;15.60;99.90;;;;;;6254269;22;20046;-86
2022/07/07 06:46:03;;;;;;;7.78;1.67;;;15.50;99.90;;;;;;6279710;22;20378;-85
2022/07/07 06:48:29;;;;;;;9.25;1.20;;;15.40;99.90;;;;;;6252053;22;20018;-82
2022/07/07 06:50:55;;;;;;;8.73;1.50;;;15.50;99.90;;;;;;6251525;22;20022;-82
2022/07/07 06:53:21;;;;;;;7.78;1.25;;;15.70;99.90;;;;;;6254067;22;20018;-83
2022/07/07 06:55:47;;;;;;;9.60;1.48;;;15.90;99.90;;;;;;6279630;22;20403;-80
2022/07/07 06:58:13;;;;;;;7.35;1.10;;;16.10;99.90;;;;;;6253340;22;20041;-84
2022/07/07 07:00:39;;;;;;;9.32;1.17;;;16.30;99.90;;;;;;6279766;22;20565;-85
2022/07/07 07:03:06;;;;;;;7.65;1.17;;;16.10;99.90;;;;;;6278175;22;20886;-84
2022/07/07 07:05:32;;;;;;;4.15;1.00;;;16.30;99.90;;;;;;6277360;22;20015;-82
2022/07/07 07:07:58;;;;;;;4.60;1.05;;;16.40;99.90;;;;;;6279300;22;20050;-81
2022/07/07 07:10:24;;;;;;;5.05;0.77;;;16.40;99.90;;;;;;6279210;22;20023;-86
2022/07/07 07:12:50;;;;;;;3.53;0.82;;;16.40;99.90;;;;;;6280521;22;20052;-82
2022/07/07 07:15:16;;;;;;;7.32;0.90;;;16.20;99.90;;;;;;6254736;22;20025;-84
2022/07/07 07:17:42;;;;;;;3.28;0.63;;;16.00;99.90;;;;;;6305066;22;20697;-85
2022/07/07 07:20:09;;;;;;;6.10;0.80;;;15.90;99.90;;;;;;6304046;22;20011;-82
2022/07/07 07:22:39;;;;;;;4.97;0.82;;;15.90;99.90;;;;;;6254547;22;20021;-82
2022/07/07 07:25:05;;;;;;;4.07;0.82;;;15.90;99.90;;;;;;6253656;22;20325;-85
2022/07/07 07:27:35;;;;;;;4.87;0.93;;;16.10;99.90;;;;;;6279171;22;20023;-84
2022/07/07 07:30:03;;;;;;;3.78;0.80;;;16.30;99.90;;;;;;6278760;22;20015;-84
2022/07/07 07:32:29;;;;;;;5.93;1.02;;;16.50;99.90;;;;;;6279698;22;20414;-85
2022/07/07 07:34:55;;;;;;;3.13;0.55;;;16.50;99.90;;;;;;6278754;22;20038;-82
2022/07/07 07:37:22;;;;;;;3.33;0.60;;;16.30;99.90;;;;;;6281837;22;20163;-90
2022/07/07 07:39:50;;;;;;;1.30;0.30;;;16.00;99.90;;;;;;6306274;22;20026;-89
2022/07/07 07:42:16;;;;;;;2.60;0.50;;;15.80;99.90;;;;;;6307702;22;20023;-82
2022/07/07 07:47:26;;;;;;;2.85;0.30;;;15.60;99.90;;;;;;6261588;22;20019;-82
2022/07/07 07:49:52;;;;;;;2.42;0.47;;;15.60;99.90;;;;;;6225552;22;20494;-83
2022/07/07 07:52:18;;;;;;;4.30;0.50;;;15.80;99.90;;;;;;6253435;22;20011;-83
2022/07/07 07:54:44;;;;;;;2.38;0.60;;;16.10;99.90;;;;;;6253635;22;20066;-81
2022/07/07 07:57:11;;;;;;;3.58;0.60;;;16.70;99.90;;;;;;6253241;22;20011;-81
2022/07/07 07:59:37;;;;;;;5.95;0.63;;;17.40;99.90;;;;;;6278900;22;20075;-84
2022/07/07 08:02:03;;;;;;;5.50;0.82;;;17.60;99.90;;;;;;6255160;22;20015;-84
2022/07/07 08:04:30;;;;;;;2.97;0.60;;;17.20;99.90;;;;;;6229358;22;20015;-84
2022/07/07 08:06:57;;;;;;;1.48;0.50;;;16.80;99.90;;;;;;6257966;22;20806;-87
2022/07/07 08:09:24;;;;;;;5.32;0.68;;;16.50;99.90;;;;;;6232286;22;20019;-84
2022/07/07 08:11:51;;;;;;;2.92;0.65;;;16.30;99.90;;;;;;6257547;22;20415;-83
2022/07/07 08:14:18;;;;;;;5.18;0.82;;;16.30;99.90;;;;;;6305088;22;20011;-83
2022/07/07 08:16:44;;;;;;;3.95;0.82;;;16.80;99.90;;;;;;6279784;22;20101;-82
2022/07/07 08:19:10;;;;;;;5.40;0.93;;;17.50;99.90;;;;;;6251819;22;20533;-83
2022/07/07 08:21:36;;;;;;;4.88;0.80;;;17.80;99.90;;;;;;6279223;22;20015;-82
2022/07/07 08:24:02;;;;;;;5.78;1.00;;;17.90;99.90;;;;;;6250431;22;20015;-83
2022/07/07 08:26:28;;;;;;;5.07;1.17;;;17.90;99.90;;;;;;6303110;22;20026;-86
2022/07/07 08:28:54;;;;;;;5.20;1.30;;;17.80;99.90;;;;;;6278315;22;20018;-84
2022/07/07 08:31:20;;;;;;;6.60;1.42;;;17.60;99.90;;;;;;6254195;22;20054;-84
2022/07/07 08:34:05;;;;;;;4.45;0.95;;;17.40;99.90;;;;;;6278289;22;20015;-91
2022/07/07 08:36:31;;;;;;;10.13;1.77;;;17.00;99.90;;;;;;6279411;22;20015;-84
2022/07/07 08:39:03;;;;;;;8.95;1.30;;;16.70;99.90;;;;;;6255439;22;20025;-85
2022/07/07 08:41:30;;;;;;;6.38;1.83;;;16.60;99.90;;;;;;6254467;22;20015;-85
2022/07/07 08:43:57;;;;;;;5.80;1.53;;;16.60;99.90;;;;;;6277972;22;20329;-91
2022/07/07 08:46:23;;;;;;;11.13;1.75;;;16.50;99.90;;;;;;6227374;22;20021;-85
2022/07/07 08:48:51;;;;;;;9.85;1.55;;;16.40;99.90;;;;;;6301892;22;20410;-83
2022/07/07 08:51:17;;;;;;;9.05;1.88;;;16.40;99.90;;;;;;6277163;22;20751;-79
2022/07/07 08:53:46;;;;;;;7.90;1.70;;;16.40;99.90;;;;;;6303473;22;20030;-83
2022/07/07 08:56:16;;;;;;;7.07;1.95;;;16.50;99.90;;;;;;6303117;22;20023;-84
2022/07/07 08:58:45;;;;;;;8.98;1.67;;;16.60;99.90;;;;;;6278316;22;20022;-88
2022/07/07 09:01:13;;;;;;;11.00;2.05;;;16.80;99.90;;;;;;6280588;22;20131;-87
2022/07/07 09:03:40;;;;;;;10.10;2.58;;;16.80;99.90;;;;;;6304000;22;20029;-85
2022/07/07 09:06:07;;;;;;;8.38;1.73;;;16.90;99.90;;;;;;6278766;22;20439;-84
2022/07/07 09:08:33;;;;;;;5.67;1.30;;;17.10;99.90;;;;;;6279234;22;20022;-89
2022/07/07 09:11:00;;;;;;;10.52;1.35;;;17.20;99.90;;;;;;6250687;22;20457;-89
2022/07/07 09:13:29;;;;;;;7.13;1.60;;;16.90;99.90;;;;;;6274427;22;20026;-85
2022/07/07 09:16:14;;;;;;;4.40;0.70;;;16.60;99.90;;;;;;6304799;22;20068;-84
2022/07/07 09:18:45;;;;;;;4.07;0.95;;;16.30;99.90;;;;;;6282889;22;20042;-83
2022/07/07 09:21:32;;;;;;;5.63;1.20;;;16.20;99.90;;;;;;6283333;22;20018;-81
2022/07/07 09:24:04;;;;;;;4.47;1.15;;;16.20;99.90;;;;;;6304209;22;20495;-83
2022/07/07 09:26:34;;;;;;;9.23;2.03;;;16.40;99.90;;;;;;6277919;22;20007;-82
2022/07/07 09:29:00;;;;;;;5.07;1.30;;;16.60;99.90;;;;;;6303799;22;20011;-83
2022/07/07 09:31:55;;;;;;;4.15;1.40;;;16.80;99.90;;;;;;6279307;22;20015;-82
2022/07/07 09:34:23;;;;;;;7.65;1.58;;;17.00;99.90;;;;;;6302194;22;20504;-81
2022/07/07 09:39:48;;;;;;;5.03;0.90;;;16.90;99.90;;;;;;6283011;22;20034;-83
2022/07/07 09:42:30;;;;;;;4.70;1.00;;;16.70;99.90;;;;;;6303982;22;20459;-84
2022/07/07 09:45:03;;;;;;;6.25;1.85;;;16.60;99.90;;;;;;6279800;22;20015;-81
2022/07/07 09:47:32;;;;;;;4.03;0.90;;;16.70;99.90;;;;;;6283436;22;20023;-85
2022/07/07 09:50:17;;;;;;;3.70;0.70;;;16.70;99.90;;;;;;6285061;22;20097;-87
2022/07/07 09:52:47;;;;;;;4.43;0.60;;;16.70;99.90;;;;;;6279037;22;20022;-82
2022/07/07 09:55:14;;;;;;;4.40;1.33;;;16.70;99.90;;;;;;6304178;22;20066;-80
2022/07/07 09:57:42;;;;;;;7.43;1.50;;;16.60;99.90;;;;;;6277796;22;20110;-84
2022/07/07 10:00:15;;;;;;;9.27;1.55;;;16.50;99.90;;;;;;6278939;22;20023;-82
2022/07/07 10:02:44;;;;;;;10.55;1.20;;;16.60;99.90;;;;;;6228196;22;20017;-82
2022/07/07 10:05:12;;;;;;;4.72;1.25;;;16.70;99.90;;;;;;6303840;22;20065;-85
2022/07/07 10:07:42;;;;;;;5.53;1.48;;;16.90;99.90;;;;;;6253544;22;20023;-78
2022/07/07 10:10:10;;;;;;;7.40;1.05;;;16.60;99.90;;;;;;6278340;22;20034;-83
2022/07/07 10:12:46;;;;;;;10.90;1.45;;;16.50;99.90;;;;;;6280363;22;20014;-84
2022/07/07 10:15:20;;;;;;;7.57;1.20;;;16.40;99.90;;;;;;6233270;22;20014;-82
2022/07/07 10:17:47;;;;;;;6.85;1.35;;;16.40;99.90;;;;;;6279249;22;20015;-81
2022/07/07 10:20:14;;;;;;;;;;;16.30;99.90;;;;;;6280479;22;20050;-81
2022/07/07 10:22:46;;;;;;;9.25;1.73;;;16.20;99.90;;;;;;6310182;22;19914;-80
2022/07/07 10:25:15;;;;;;;6.78;1.17;;;16.10;99.90;;;;;;6285069;22;20046;-80
2022/07/07 10:28:02;;;;;;;8.90;2.28;;;16.10;99.90;;;;;;6310608;22;20025;-80
2022/07/07 10:30:47;;;;;;;10.10;2.00;;;16.00;99.90;;;;;;6280801;22;20045;-82
2022/07/07 10:33:13;;;;;;;7.72;1.60;;;16.20;99.90;;;;;;6255088;22;20018;-88
2022/07/07 10:35:45;;;;;;;12.70;2.28;;;16.20;99.90;;;;;;6254323;22;20046;-86
2022/07/07 10:38:16;;;;;;;10.82;2.53;;;16.20;99.90;;;;;;6229540;22;20027;-89
2022/07/07 10:40:52;;;;;;;9.18;1.55;;;16.10;99.90;;;;;;6280762;22;20014;-92
2022/07/07 10:43:31;;;;;;;10.93;2.15;;;16.10;99.90;;;;;;6280303;22;20026;-89
2022/07/07 10:45:57;;;;;;;9.00;1.70;;;16.10;99.90;;;;;;6279699;22;20011;-84
2022/07/07 10:48:45;;;;;;;13.07;2.03;;;16.20;99.90;;;;;;6279335;22;20050;-86
2022/07/07 10:51:23;;;;;;;6.95;1.42;;;16.20;99.90;;;;;;6280997;22;20122;-87
2022/07/07 10:54:03;;;;;;;10.25;2.35;;;16.20;99.90;;;;;;6280758;22;20023;-84
2022/07/07 10:56:53;;;;;;;13.85;2.42;;;16.20;99.90;;;;;;6306377;22;20647;-80
2022/07/07 10:59:20;;;;;;;8.43;1.80;;;16.30;99.90;;;;;;6303727;22;20026;-82
2022/07/07 11:02:02;;;;;;;10.80;1.67;;;16.40;99.90;;;;;;6281459;22;20014;-85
2022/07/07 11:04:58;;;;;;;11.27;2.28;;;16.50;99.90;;;;;;6278915;22;20395;-84
2022/07/07 11:07:25;;;;;;;11.63;1.80;;;16.40;99.90;;;;;;6224456;22;20023;-91
2022/07/07 11:10:01;;;;;;;8.02;1.85;;;16.40;99.90;;;;;;6308199;22;20033;-84
2022/07/07 11:12:43;;;;;;;9.48;1.90;;;16.30;99.90;;;;;;6281859;22;20019;-85
2022/07/07 11:15:20;;;;;;;6.97;1.20;;;16.30;99.90;;;;;;6281767;22;20018;-85
2022/07/07 11:17:49;;;;;;;6.35;1.40;;;16.20;99.90;;;;;;6308236;22;20054;-80
2022/07/07 11:20:17;;;;;;;11.45;1.73;;;16.20;99.90;;;;;;6307117;22;20015;-87
2022/07/07 11:22:52;;;;;;;14.98;2.00;;;16.20;99.90;;;;;;6308841;22;20023;-86
2022/07/07 11:25:20;;;;;;;12.60;2.13;;;16.30;99.90;;;;;;6282055;22;20015;-85
2022/07/07 11:27:48;;;;;;;7.78;1.70;;;16.30;99.90;;;;;;6256478;22;20094;-86
2022/07/07 11:30:20;;;;;;;9.07;1.88;;;16.40;99.90;;;;;;6254483;22;20018;-82
2022/07/07 11:32:49;;;;;;;7.25;1.20;;;16.40;99.90;;;;;;6279723;22;20046;-82
2022/07/07 11:35:16;;;;;;;5.72;1.42;;;16.50;99.90;;;;;;6331599;22;20018;-80
2022/07/07 11:37:45;;;;;;;7.55;1.50;;;16.50;99.90;;;;;;6304810;22;20026;-84
2022/07/07 11:40:14;;;;;;;8.70;1.73;;;16.80;99.90;;;;;;6276767;22;20026;-81
2022/07/07 11:42:42;;;;;;;6.00;1.10;;;17.00;99.90;;;;;;6278702;22;20022;-84
2022/07/07 11:45:31;;;;;;;10.23;2.03;;;17.00;99.90;;;;;;6250140;22;20076;-80
2022/07/07 11:48:07;;;;;;;5.85;1.60;;;17.00;99.90;;;;;;6277668;22;20027;-86
2022/07/07 11:50:35;;;;;;;8.38;1.83;;;16.90;99.90;;;;;;6302691;22;20024;-80
2022/07/07 11:53:03;;;;;;;9.20;2.28;;;16.80;99.90;;;;;;6279108;22;20022;-78
2022/07/07 11:55:36;;;;;;;5.90;1.45;;;16.70;99.90;;;;;;6276840;22;20034;-85
2022/07/07 11:58:04;;;;;;;12.15;2.17;;;16.40;99.90;;;;;;6253475;22;20022;-81
2022/07/07 12:00:40;;;;;;;9.82;2.25;;;16.70;99.90;;;;;;6276905;22;20011;-84
2022/07/07 12:03:08;;;;;;;12.45;1.40;;;16.80;99.90;;;;;;6304969;22;20118;-78
2022/07/07 12:05:34;;;;;;;;;;;16.40;99.90;;;;;;6304440;22;20499;-79
2022/07/07 12:08:06;;;;;;;19.58;2.85;;;16.90;99.90;;;;;;6304662;22;19978;-79
2022/07/07 12:10:44;;;;;;;15.35;2.67;;;16.70;99.90;;;;;;6278691;22;20026;-82
2022/07/07 12:13:16;;;;;;;9.95;2.13;;;16.70;99.90;;;;;;6279507;22;20022;-82
2022/07/07 12:15:51;;;;;;;9.18;1.50;;;16.70;99.90;;;;;;6303543;22;20030;-78
2022/07/07 12:18:45;;;;;;;14.88;1.92;;;16.80;99.90;;;;;;6307019;22;20029;-80
2022/07/07 12:21:35;;;;;;;10.93;2.10;;;16.80;99.90;;;;;;6279744;22;20393;-82
2022/07/07 12:24:06;;;;;;;9.50;1.77;;;16.90;99.90;;;;;;6285878;22;20029;-82
2022/07/07 12:26:49;;;;;;;11.73;1.98;;;17.20;99.90;;;;;;6255205;22;20011;-83
2022/07/07 12:29:20;;;;;;;14.07;1.92;;;17.10;99.90;;;;;;6339783;22;20019;-82
2022/07/07 12:31:48;;;;;;;13.45;1.88;;;17.20;99.90;;;;;;6288962;22;20010;-79
2022/07/07 12:34:17;;;;;;;10.88;1.92;;;17.00;99.90;;;;;;6341213;22;20023;-82
2022/07/07 12:36:46;;;;;;;7.78;1.90;;;16.80;99.90;;;;;;6319439;22;20015;-79
2022/07/07 12:39:26;;;;;;;8.98;1.67;;;16.60;99.90;;;;;;6293538;22;20478;-82
2022/07/07 12:45:21;;;;;;;9.20;1.92;;;16.60;99.90;;;;;;6311451;22;20071;-82
2022/07/07 12:47:55;;;;;;;9.32;1.60;;;16.40;99.90;;;;;;6336632;22;20015;-80
2022/07/07 12:50:23;;;;;;;9.07;1.77;;;16.50;99.90;;;;;;6283744;22;20026;-81
2022/07/07 12:53:08;;;;;;;10.77;2.42;;;16.40;99.90;;;;;;6307121;22;20399;-82
2022/07/07 12:55:47;;;;;;;10.75;2.20;;;16.30;99.90;;;;;;6280537;22;20022;-81
2022/07/07 12:58:16;;;;;;;14.52;2.60;;;16.10;99.90;;;;;;6280671;22;20018;-84
2022/07/07 13:01:03;;;;;;;14.65;2.80;;;15.90;99.90;;;;;;6331947;22;20060;-84